Time;durP1;ratioP1;P1;durP2;ratioP2;P2;SDS_P1;SDS_P2;PMS_P1;PMS_P2;Temp;Humidity;BMP_temperature;BMP_pressure;BME280_temperature;BME280_humidity;BME280_pressure;Samples;Min_cycle;Max_cycle;Signal;HPM_P1;HPM_P2
2022/04/12 00:02:05;;;;;;;;;;;4.80;99.90;;;;;;4892070;29;19923;-72
2022/04/12 00:04:37;;;;;;;;;;;4.80;99.90;;;;;;4877883;29;19935;-73
2022/04/12 00:07:08;;;;;;;;;;;4.90;99.90;;;;;;4892820;29;19931;-72
2022/04/12 00:09:40;;;;;;;;;;;4.90;99.90;;;;;;4893338;29;20370;-72
2022/04/12 00:12:14;;;;;;;;;;;4.90;99.90;;;;;;4878719;29;20576;-72
2022/04/12 00:14:45;;;;;;;;;;;4.90;99.90;;;;;;4893531;29;20264;-72
2022/04/12 00:20:07;;;;;;;;;;;4.90;99.90;;;;;;4892643;29;19928;-72
2022/04/12 00:22:40;;;;;;;;;;;4.90;99.90;;;;;;4877041;29;19927;-73
2022/04/12 00:25:12;;;;;;;;;;;4.80;99.90;;;;;;4877760;29;19930;-72
2022/04/12 00:27:43;;;;;;;;;;;4.80;99.90;;;;;;4878342;29;19924;-72
2022/04/12 00:30:15;;;;;;;;;;;4.80;99.90;;;;;;4893261;29;20001;-72
2022/04/12 00:32:50;;;;;;;;;;;4.80;99.90;;;;;;4892725;29;19927;-73
2022/04/12 00:35:23;;;;;;;;;;;4.80;99.90;;;;;;4893130;29;19924;-72
2022/04/12 00:37:56;;;;;;;;;;;4.70;99.90;;;;;;4878623;29;19923;-72
2022/04/12 00:40:27;;;;;;;;;;;4.70;99.90;;;;;;4897281;29;19927;-72
2022/04/12 00:42:54;;;;;;;;;;;4.60;99.90;;;;;;4889260;29;19939;-72
2022/04/12 00:45:26;;;;;;;;;;;4.60;99.90;;;;;;4885215;29;19927;-73
2022/04/12 00:47:57;;;;;;;;;;;4.50;99.90;;;;;;4878718;29;19923;-72
2022/04/12 00:50:29;;;;;;;;;;;4.50;99.90;;;;;;4878536;29;20395;-72
2022/04/12 00:52:56;;;;;;;;;;;4.50;99.90;;;;;;4892637;29;20010;-73
2022/04/12 00:55:29;;;;;;;;;;;4.50;99.90;;;;;;4878283;29;19928;-72
2022/04/12 00:57:56;;;;;;;;;;;4.50;99.90;;;;;;4876699;29;19934;-72
2022/04/12 01:00:28;;;;;;;;;;;4.50;99.90;;;;;;4878350;29;19923;-73
2022/04/12 01:03:00;;;;;;;;;;;4.40;99.90;;;;;;4876286;29;19924;-72
2022/04/12 01:05:32;;;;;;;;;;;4.40;99.90;;;;;;4891617;29;19924;-72
2022/04/12 01:08:04;;;;;;;;;;;4.40;99.90;;;;;;4891815;29;19931;-73
2022/04/12 01:10:37;;;;;;;;;;;4.40;99.90;;;;;;4877960;29;20334;-72
2022/04/12 01:13:04;;;;;;;;;;;4.30;99.90;;;;;;4894119;29;20101;-72
2022/04/12 01:15:35;;;;;;;;;;;4.30;99.90;;;;;;4881658;29;20295;-72
2022/04/12 01:18:07;;;;;;;;;;;4.30;99.90;;;;;;4881640;29;20391;-73
2022/04/12 01:20:38;;;;;;;;;;;4.20;99.90;;;;;;4881514;29;19927;-73
2022/04/12 01:23:10;;;;;;;;;;;4.20;99.90;;;;;;4880926;29;20394;-72
2022/04/12 01:25:42;;;;;;;;;;;4.10;99.90;;;;;;4880150;29;19946;-72
2022/04/12 01:28:13;;;;;;;;;;;4.10;99.90;;;;;;4881532;29;20630;-72
2022/04/12 01:30:45;;;;;;;;;;;4.10;99.90;;;;;;4881253;29;20398;-72
2022/04/12 01:33:16;;;;;;;;;;;4.00;99.90;;;;;;4879818;29;19951;-72
2022/04/12 01:35:48;;;;;;;;;;;4.00;99.90;;;;;;4881262;29;19934;-72
2022/04/12 01:38:19;;;;;;;;;;;4.00;99.90;;;;;;4879810;29;19928;-72
2022/04/12 01:40:51;;;;;;;;;;;3.90;99.90;;;;;;4880967;29;20294;-72
2022/04/12 01:43:23;;;;;;;;;;;3.90;99.90;;;;;;4879550;29;19924;-72
2022/04/12 01:45:54;;;;;;;;;;;3.90;99.90;;;;;;4879908;29;19930;-72
2022/04/12 01:48:26;;;;;;;;;;;3.90;99.90;;;;;;4881024;29;20022;-72
2022/04/12 01:50:53;;;;;;;;;;;3.90;99.90;;;;;;4881037;29;20002;-72
2022/04/12 01:53:24;;;;;;;;;;;3.80;99.90;;;;;;4880365;29;20382;-73
2022/04/12 01:55:56;;;;;;;;;;;3.80;99.90;;;;;;4880826;29;19923;-72
2022/04/12 01:58:27;;;;;;;;;;;3.70;99.90;;;;;;4894608;29;20345;-72
2022/04/12 02:00:59;;;;;;;;;;;3.70;99.90;;;;;;4880865;29;20382;-72
2022/04/12 02:03:31;;;;;;;;;;;3.70;99.90;;;;;;4894537;29;19927;-72
2022/04/12 02:05:57;;;;;;;;;;;3.70;99.90;;;;;;4880352;29;19930;-72
2022/04/12 02:08:29;;;;;;;;;;;3.60;99.90;;;;;;4879610;29;19934;-72
2022/04/12 02:11:01;;;;;;;;;;;3.60;99.90;;;;;;4880520;29;19923;-72
2022/04/12 02:13:33;;;;;;;;;;;3.60;99.90;;;;;;4879050;29;19923;-72
2022/04/12 02:16:04;;;;;;;;;;;3.60;99.90;;;;;;4880509;29;19923;-72
2022/04/12 02:18:36;;;;;;;;;;;3.60;99.90;;;;;;4880474;29;20391;-72
2022/04/12 02:21:07;;;;;;;;;;;3.60;99.90;;;;;;4880443;29;19928;-72
2022/04/12 02:23:39;;;;;;;;;;;3.60;99.90;;;;;;4893568;29;20019;-72
2022/04/12 02:26:10;;;;;;;;;;;3.60;99.90;;;;;;4879135;29;19927;-72
2022/04/12 02:28:42;;;;;;;;;;;3.60;99.90;;;;;;4880483;29;19963;-72
2022/04/12 02:31:14;;;;;;;;;;;3.60;99.90;;;;;;4880244;29;19923;-72
2022/04/12 02:33:46;;;;;;;;;;;3.50;99.90;;;;;;4879602;29;20324;-73
2022/04/12 02:36:17;;;;;;;;;;;3.60;99.90;;;;;;4880138;29;19933;-72
2022/04/12 02:38:49;;;;;;;;;;;3.50;99.90;;;;;;4880048;29;19923;-72
2022/04/12 02:41:15;;;;;;;;;;;3.40;99.90;;;;;;4879170;29;19923;-73
2022/04/12 02:43:47;;;;;;;;;;;3.50;99.90;;;;;;4879697;29;19931;-72
2022/04/12 02:46:18;;;;;;;;;;;3.40;99.90;;;;;;4878860;29;19931;-72
2022/04/12 02:48:50;;;;;;;;;;;3.40;99.90;;;;;;4893538;29;20279;-73
2022/04/12 02:51:22;;;;;;;;;;;3.40;99.90;;;;;;4894383;29;20333;-72
2022/04/12 02:53:48;;;;;;;;;;;3.40;99.90;;;;;;4893994;29;20015;-72
2022/04/12 02:56:20;;;;;;;;;;;3.40;99.90;;;;;;4893582;29;20022;-72
2022/04/12 02:58:51;;;;;;;;;;;3.40;99.90;;;;;;4879096;29;19924;-73
2022/04/12 03:01:23;;;;;;;;;;;3.30;99.90;;;;;;4880175;29;19924;-73
2022/04/12 03:03:55;;;;;;;;;;;3.30;99.90;;;;;;4879412;29;20293;-72
2022/04/12 03:06:26;;;;;;;;;;;3.20;99.90;;;;;;4879558;29;20029;-73
2022/04/12 03:08:58;;;;;;;;;;;3.20;99.90;;;;;;4893478;29;19924;-72
2022/04/12 03:11:30;;;;;;;;;;;3.20;99.90;;;;;;4878553;29;19928;-72
2022/04/12 03:14:02;;;;;;;;;;;3.10;99.90;;;;;;4893220;29;19924;-72
2022/04/12 03:16:29;;;;;;;;;;;3.10;99.90;;;;;;4878157;29;19948;-72
2022/04/12 03:18:56;;;;;;;;;;;3.10;99.90;;;;;;4879206;29;19928;-72
2022/04/12 03:21:27;;;;;;;;;;;3.00;99.90;;;;;;4879912;29;19931;-72
2022/04/12 03:23:59;;;;;;;;;;;3.10;99.90;;;;;;4879265;29;19931;-72
2022/04/12 03:26:30;;;;;;;;;;;3.10;99.90;;;;;;4893496;29;19924;-72
2022/04/12 03:29:02;;;;;;;;;;;3.00;99.90;;;;;;4878450;29;20499;-72
2022/04/12 03:31:34;;;;;;;;;;;3.00;99.90;;;;;;4878429;29;19930;-72
2022/04/12 03:34:05;;;;;;;;;;;3.00;99.90;;;;;;4879580;29;20470;-72
2022/04/12 03:36:38;;;;;;;;;;;3.00;99.90;;;;;;4892447;29;19924;-72
2022/04/12 03:39:16;;;;;;;;;;;3.00;99.90;;;;;;4879790;29;19934;-73
2022/04/12 03:41:48;;;;;;;;;;;3.00;99.90;;;;;;4878058;29;20070;-73
2022/04/12 03:44:20;;;;;;;;;;;3.00;99.90;;;;;;4879342;29;19924;-72
2022/04/12 03:46:51;;;;;;;;;;;2.90;99.90;;;;;;4879171;29;20359;-72
2022/04/12 03:49:23;;;;;;;;;;;3.00;99.90;;;;;;4879384;29;19931;-72
2022/04/12 03:51:54;;;;;;;;;;;2.90;99.90;;;;;;4879051;29;19950;-73
2022/04/12 03:54:21;;;;;;;;;;;2.90;99.90;;;;;;4879156;29;19924;-72
2022/04/12 03:56:53;;;;;;;;;;;2.90;99.90;;;;;;4879101;29;19924;-72
2022/04/12 03:59:24;;;;;;;;;;;2.80;99.90;;;;;;4892426;29;19924;-72
2022/04/12 04:01:56;;;;;;;;;;;2.80;99.90;;;;;;4878973;29;19924;-73
2022/04/12 04:04:27;;;;;;;;;;;2.80;99.90;;;;;;4879039;29;20369;-72
2022/04/12 04:06:59;;;;;;;;;;;2.80;99.90;;;;;;4879012;29;19924;-72
2022/04/12 04:09:30;;;;;;;;;;;2.70;99.90;;;;;;4888813;29;19931;-72
2022/04/12 04:12:03;;;;;;;;;;;2.60;99.90;;;;;;4883743;29;19930;-72
2022/04/12 04:14:35;;;;;;;;;;;2.60;99.90;;;;;;4886051;29;19924;-72
2022/04/12 04:17:07;;;;;;;;;;;2.60;99.90;;;;;;4893870;29;19927;-72
2022/04/12 04:19:38;;;;;;;;;;;2.50;99.90;;;;;;4894106;29;19956;-72
2022/04/12 04:22:10;;;;;;;;;;;2.50;99.90;;;;;;4912024;29;20274;-72
2022/04/12 04:24:42;;;;;;;;;;;2.60;99.90;;;;;;4905221;29;19930;-72
2022/04/12 04:27:13;;;;;;;;;;;2.50;99.90;;;;;;4892745;29;19924;-72
2022/04/12 04:29:45;;;;;;;;;;;2.50;99.90;;;;;;4892645;29;20356;-72
2022/04/12 04:32:17;;;;;;;;;;;2.50;99.90;;;;;;4878462;29;20370;-72
2022/04/12 04:34:48;;;;;;;;;;;2.50;99.90;;;;;;4878762;29;19927;-73
2022/04/12 04:37:20;;;;;;;;;;;2.50;99.90;;;;;;4893014;29;19946;-71
2022/04/12 04:39:52;;;;;;;;;;;2.50;99.90;;;;;;4890195;29;19924;-72
2022/04/12 04:42:24;;;;;;;;;;;2.50;99.90;;;;;;4878463;29;19923;-72
2022/04/12 04:44:56;;;;;;;;;;;2.50;99.90;;;;;;4877463;29;19923;-72
2022/04/12 04:47:22;;;;;;;;;;;2.50;99.90;;;;;;4878359;29;19924;-73
2022/04/12 04:49:54;;;;;;;;;;;2.50;99.90;;;;;;4881369;29;19924;-72
2022/04/12 04:52:25;;;;;;;;;;;2.50;99.90;;;;;;4882173;29;19923;-72
2022/04/12 04:54:57;;;;;;;;;;;2.50;99.90;;;;;;4882304;29;19932;-72
2022/04/12 04:57:24;;;;;;;;;;;2.50;99.90;;;;;;4880793;29;19924;-72
2022/04/12 04:59:50;;;;;;;;;;;2.50;99.90;;;;;;4884020;29;19934;-72
2022/04/12 05:02:22;;;;;;;;;;;2.50;99.90;;;;;;4896560;29;20280;-72
2022/04/12 05:04:53;;;;;;;;;;;2.40;99.90;;;;;;4861641;29;19924;-72
2022/04/12 05:07:25;;;;;;;;;;;2.40;99.90;;;;;;4863989;29;19924;-72
2022/04/12 05:09:57;;;;;;;;;;;2.50;99.90;;;;;;4880128;29;20298;-72
2022/04/12 05:12:29;;;;;;;;;;;2.50;99.90;;;;;;4880010;29;19931;-72
2022/04/12 05:15:00;;;;;;;;;;;2.50;99.90;;;;;;4879981;29;20158;-72
2022/04/12 05:17:32;;;;;;;;;;;2.50;99.90;;;;;;4881265;29;19930;-72
2022/04/12 05:19:59;;;;;;;;;;;2.50;99.90;;;;;;4881691;29;20403;-72
2022/04/12 05:22:30;;;;;;;;;;;2.50;99.90;;;;;;4901721;29;19935;-72
2022/04/12 05:25:02;;;;;;;;;;;2.50;99.90;;;;;;4885756;29;19928;-72
2022/04/12 05:27:33;;;;;;;;;;;2.50;99.90;;;;;;4909353;29;19963;-72
2022/04/12 05:30:08;;;;;;;;;;;2.60;99.90;;;;;;4886234;29;19932;-72
2022/04/12 05:32:40;;;;;;;;;;;2.60;99.90;;;;;;4877263;29;20677;-73
2022/04/12 05:35:12;;;;;;;;;;;2.60;99.90;;;;;;4891251;29;19924;-72
2022/04/12 05:37:45;;;;;;;;;;;2.70;99.90;;;;;;4893295;29;20355;-72
2022/04/12 05:40:18;;;;;;;;;;;2.70;99.90;;;;;;4893000;29;19930;-72
2022/04/12 05:42:51;;;;;;;;;;;2.70;99.90;;;;;;4892079;29;19924;-72
2022/04/12 05:45:23;;;;;;;;;;;2.70;99.90;;;;;;4897748;29;19931;-73
2022/04/12 05:47:55;;;;;;;;;;;2.70;99.90;;;;;;4895800;29;19924;-72
2022/04/12 05:50:22;;;;;;;;;;;2.70;99.90;;;;;;4899030;29;19932;-72
2022/04/12 05:52:54;;;;;;;;;;;2.80;99.90;;;;;;4883477;29;19934;-72
2022/04/12 05:55:26;;;;;;;;;;;2.80;99.90;;;;;;4895810;29;19930;-72
2022/04/12 05:57:59;;;;;;;;;;;2.90;99.90;;;;;;4895149;29;19923;-72
2022/04/12 06:00:32;;;;;;;;;;;2.90;99.90;;;;;;4902677;29;19982;-72
2022/04/12 06:03:03;;;;;;;;;;;3.10;99.90;;;;;;4885815;29;21015;-72
2022/04/12 06:05:35;;;;;;;;;;;3.20;99.90;;;;;;4905549;29;19924;-73
2022/04/12 06:08:07;;;;;;;;;;;3.30;99.90;;;;;;4882075;29;19931;-73
2022/04/12 06:10:39;;;;;;;;;;;3.30;99.90;;;;;;4878759;29;19931;-73
2022/04/12 06:13:11;;;;;;;;;;;3.30;99.90;;;;;;4886381;29;19934;-73
2022/04/12 06:15:42;;;;;;;;;;;3.20;99.90;;;;;;4895119;29;19924;-73
2022/04/12 06:18:10;;;;;;;;;;;3.20;99.90;;;;;;4886785;29;19937;-73
2022/04/12 06:20:42;;;;;;;;;;;3.20;99.90;;;;;;4894831;29;20017;-73
2022/04/12 06:23:14;;;;;;;;;;;3.30;99.90;;;;;;4895590;29;19930;-73
2022/04/12 06:25:46;;;;;;;;;;;3.30;99.90;;;;;;4879571;29;19923;-74
2022/04/12 06:28:18;;;;;;;;;;;3.40;99.90;;;;;;4879085;29;19928;-73
2022/04/12 06:30:49;;;;;;;;;;;3.40;99.90;;;;;;4879556;29;19930;-73
2022/04/12 06:33:21;;;;;;;;;;;3.50;99.90;;;;;;4898512;29;19935;-73
2022/04/12 06:35:53;;;;;;;;;;;3.60;99.90;;;;;;4894952;29;19930;-73
2022/04/12 06:38:25;;;;;;;;;;;3.70;99.90;;;;;;4886895;29;19924;-73
2022/04/12 06:40:56;;;;;;;;;;;3.70;99.90;;;;;;4886340;29;19951;-73
2022/04/12 06:43:28;;;;;;;;;;;3.80;99.90;;;;;;4878113;29;19951;-73
2022/04/12 06:45:59;;;;;;;;;;;3.90;99.90;;;;;;4894767;29;20346;-73
2022/04/12 06:48:26;;;;;;;;;;;4.00;99.90;;;;;;4894522;29;19924;-73
2022/04/12 06:50:57;;;;;;;;;;;4.00;99.90;;;;;;4878874;29;20030;-73
2022/04/12 06:53:24;;;;;;;;;;;4.10;99.90;;;;;;4894535;29;19931;-73
2022/04/12 06:55:57;;;;;;;;;;;4.20;99.90;;;;;;4894035;29;20381;-73
2022/04/12 06:58:29;;;;;;;;;;;4.20;99.90;;;;;;4880428;29;19924;-73
2022/04/12 07:01:00;;;;;;;;;;;4.30;99.90;;;;;;4880240;29;19924;-73
2022/04/12 07:03:32;;;;;;;;;;;4.40;99.90;;;;;;4877980;29;20414;-71
2022/04/12 07:06:03;;;;;;;;;;;4.50;99.90;;;;;;4880156;29;20014;-72
2022/04/12 07:08:36;;;;;;;;;;;4.60;99.90;;;;;;4879053;29;19930;-72
2022/04/12 07:11:07;;;;;;;;;;;4.80;99.90;;;;;;4881590;29;20489;-72
2022/04/12 07:13:39;;;;;;;;;;;4.90;99.90;;;;;;4897762;29;19931;-72
2022/04/12 07:16:11;;;;;;;;;;;5.00;99.90;;;;;;4895665;29;19927;-71
2022/04/12 07:18:42;;;;;;;;;;;5.10;99.90;;;;;;4898503;29;19924;-72
2022/04/12 07:21:21;;;;;;;;;;;5.30;99.90;;;;;;4878833;29;19927;-72
2022/04/12 07:23:52;;;;;;;;;;;5.40;99.90;;;;;;4893755;29;19930;-72
2022/04/12 07:26:24;;;;;;;;;;;5.50;99.90;;;;;;4879723;29;19979;-72
2022/04/12 07:28:56;;;;;;;;;;;5.70;99.90;;;;;;4892953;29;19923;-72
2022/04/12 07:31:27;;;;;;;;;;;5.80;99.90;;;;;;4898789;29;19935;-72
2022/04/12 07:33:59;;;;;;;;;;;5.90;99.90;;;;;;4911881;29;20378;-72
2022/04/12 07:36:31;;;;;;;;;;;6.10;99.90;;;;;;4912940;29;20283;-72
2022/04/12 07:38:57;;;;;;;;;;;6.20;99.90;;;;;;4912714;29;19939;-73
2022/04/12 07:41:29;;;;;;;;;;;6.40;99.90;;;;;;4912656;29;19942;-73
2022/04/12 07:44:00;;;;;;;;;;;6.60;99.90;;;;;;4897906;29;20040;-72
2022/04/12 07:46:32;;;;;;;;;;;6.70;99.90;;;;;;4896333;29;19930;-72
2022/04/12 07:48:59;;;;;;;;;;;6.90;99.90;;;;;;4897380;29;20339;-72
2022/04/12 07:51:30;;;;;;;;;;;7.10;99.90;;;;;;4884679;29;19924;-73
2022/04/12 07:54:03;;;;;;;;;;;7.20;99.90;;;;;;4878918;29;20374;-73
2022/04/12 07:56:35;;;;;;;;;;;7.40;99.90;;;;;;4878660;29;20014;-73
2022/04/12 07:59:09;;;;;;;;;;;7.60;99.90;;;;;;4887110;29;19924;-74
2022/04/12 08:01:40;;;;;;;;;;;7.80;99.90;;;;;;4896609;29;19943;-73
2022/04/12 08:04:12;;;;;;;;;;;8.00;99.90;;;;;;4887221;29;20342;-73
2022/04/12 08:06:39;;;;;;;;;;;8.20;99.90;;;;;;4899422;29;20004;-73
2022/04/12 08:09:10;;;;;;;;;;;8.30;99.90;;;;;;4878787;29;19930;-74
2022/04/12 08:11:42;;;;;;;;;;;8.40;99.90;;;;;;4891368;29;19923;-73
2022/04/12 08:14:14;;;;;;;;;;;8.60;99.90;;;;;;4894485;29;19923;-73
2022/04/12 08:16:46;;;;;;;;;;;8.70;99.90;;;;;;4900441;29;19923;-73
2022/04/12 08:19:17;;;;;;;;;;;8.90;99.90;;;;;;4893886;29;20374;-73
2022/04/12 08:21:44;;;;;;;;;;;9.10;99.90;;;;;;4878134;29;20343;-73
2022/04/12 08:24:11;;;;;;;;;;;9.30;99.90;;;;;;4896723;29;19987;-73
2022/04/12 08:26:42;;;;;;;;;;;9.50;99.90;;;;;;4882404;29;19923;-73
2022/04/12 08:29:14;;;;;;;;;;;9.60;99.90;;;;;;4873902;29;19923;-73
2022/04/12 08:31:46;;;;;;;;;;;9.90;99.90;;;;;;4875266;29;19930;-73
2022/04/12 08:34:18;;;;;;;;;;;10.10;99.90;;;;;;4874903;29;20375;-73
2022/04/12 08:36:50;;;;;;;;;;;10.20;99.90;;;;;;4875565;29;20002;-73
2022/04/12 08:39:21;;;;;;;;;;;10.40;99.90;;;;;;4892877;29;19983;-73
2022/04/12 08:41:51;;;;;;;;;;;10.60;99.90;;;;;;4877272;29;19924;-74
2022/04/12 08:44:24;;;;;;;;;;;10.70;99.90;;;;;;4892270;29;19963;-73
2022/04/12 08:46:51;;;;;;;;;;;10.90;99.90;;;;;;4878259;29;19924;-73
2022/04/12 08:49:23;;;;;;;;;;;11.00;99.90;;;;;;4897582;29;19931;-73
2022/04/12 08:51:55;;;;;;;;;;;11.20;99.90;;;;;;4894292;29;20006;-73
2022/04/12 08:54:27;;;;;;;;;;;11.40;99.90;;;;;;4881066;29;19932;-73
2022/04/12 08:56:59;;;;;;;;;;;11.50;99.90;;;;;;4886520;29;19924;-73
2022/04/12 08:59:27;;;;;;;;;;;11.60;99.90;;;;;;4884005;29;19942;-73
2022/04/12 09:01:59;;;;;;;;;;;11.80;99.90;;;;;;4890782;29;19923;-73
2022/04/12 09:04:32;;;;;;;;;;;11.90;99.90;;;;;;4896790;29;19996;-73
2022/04/12 09:07:00;;;;;;;;;;;12.00;99.90;;;;;;4894884;29;19927;-73
2022/04/12 09:09:32;;;;;;;;;;;12.20;99.90;;;;;;4884477;29;19924;-74
2022/04/12 09:12:09;;;;;;;;;;;12.30;99.90;;;;;;4894597;29;19928;-73
2022/04/12 09:14:42;;;;;;;;;;;12.50;99.90;;;;;;4895105;29;19924;-74
2022/04/12 09:17:15;;;;;;;;;;;12.70;99.90;;;;;;4891618;29;20010;-74
2022/04/12 09:19:46;;;;;;;;;;;12.80;99.90;;;;;;4901161;29;19982;-73
2022/04/12 09:22:19;;;;;;;;;;;13.00;99.90;;;;;;4895842;29;20027;-73
2022/04/12 09:24:51;;;;;;;;;;;13.10;99.90;;;;;;4899431;29;20022;-73
2022/04/12 09:27:25;;;;;;;;;;;13.20;99.90;;;;;;4886644;29;19981;-73
2022/04/12 09:29:59;;;;;;;;;;;13.40;99.90;;;;;;4882433;29;20003;-73
2022/04/12 09:32:27;;;;;;;;;;;13.50;99.90;;;;;;4895313;29;19923;-73
2022/04/12 09:34:55;;;;;;;;;;;13.60;99.90;;;;;;4883928;29;19923;-73
2022/04/12 09:37:34;;;;;;;;;;;13.80;99.90;;;;;;4899522;29;20378;-73
2022/04/12 09:40:15;;;;;;;;;;;13.90;99.90;;;;;;4886146;29;19931;-74
2022/04/12 09:42:48;;;;;;;;;;;14.10;99.90;;;;;;4900621;29;19962;-73
2022/04/12 09:45:15;;;;;;;;;;;14.20;99.90;;;;;;4881534;29;20011;-73
2022/04/12 09:47:42;;;;;;;;;;;14.30;99.90;;;;;;4894080;29;19959;-74
2022/04/12 09:50:14;;;;;;;;;;;14.40;99.90;;;;;;4896301;29;19924;-73
2022/04/12 09:52:56;;;;;;;;;;;14.60;99.90;;;;;;4895157;29;19927;-74
2022/04/12 09:55:35;;;;;;;;;;;14.70;99.90;;;;;;4895383;29;19928;-74
2022/04/12 09:58:08;;;;;;;;;;;14.90;99.90;;;;;;4886912;29;20026;-74
2022/04/12 10:00:38;;;;;;;;;;;15.00;99.90;;;;;;4880955;29;20523;-73
2022/04/12 10:03:11;;;;;;;;;;;15.10;99.90;;;;;;4884948;29;20317;-73
2022/04/12 10:05:43;;;;;;;;;;;15.20;99.90;;;;;;4888879;29;20010;-74
2022/04/12 10:08:16;;;;;;;;;;;15.40;99.90;;;;;;4882627;29;19979;-74
2022/04/12 10:10:48;;;;;;;;;;;15.50;99.90;;;;;;4881272;29;19975;-74
2022/04/12 10:13:20;;;;;;;;;;;15.70;99.90;;;;;;4892393;29;20095;-74
2022/04/12 10:15:47;;;;;;;;;;;15.80;99.90;;;;;;4879639;29;19956;-74
2022/04/12 10:18:20;;;;;;;;;;;15.90;99.80;;;;;;4879754;29;19930;-74
2022/04/12 10:20:56;;;;;;;;;;;15.90;99.40;;;;;;4891881;29;20383;-74
2022/04/12 10:23:29;;;;;;;;;;;16.00;99.90;;;;;;4904701;29;19927;-74
2022/04/12 10:26:01;;;;;;;;;;;16.20;99.90;;;;;;4881592;29;20007;-74
2022/04/12 10:28:29;;;;;;;;;;;16.30;99.60;;;;;;4890648;29;19931;-74
2022/04/12 10:31:02;;;;;;;;;;;16.50;99.90;;;;;;4895611;29;20378;-74
2022/04/12 10:33:34;;;;;;;;;;;16.60;98.50;;;;;;4882978;29;19931;-73
2022/04/12 10:36:07;;;;;;;;;;;16.70;98.00;;;;;;4882557;29;19950;-73
2022/04/12 10:38:40;;;;;;;;;;;16.80;96.30;;;;;;4882560;29;19927;-74
2022/04/12 10:41:12;;;;;;;;;;;16.80;96.20;;;;;;4883106;29;19924;-74
2022/04/12 10:43:39;;;;;;;;;;;16.90;95.00;;;;;;4880197;29;19928;-74
2022/04/12 10:46:11;;;;;;;;;;;16.90;95.00;;;;;;4885805;29;19923;-74
2022/04/12 10:48:43;;;;;;;;;;;17.10;95.50;;;;;;4879521;29;19924;-73
2022/04/12 10:51:15;;;;;;;;;;;17.10;94.10;;;;;;4894522;29;19924;-74
2022/04/12 10:53:47;;;;;;;;;;;17.20;92.40;;;;;;4880707;29;20565;-74
2022/04/12 10:56:21;;;;;;;;;;;17.20;92.70;;;;;;4879150;29;20359;-74
2022/04/12 10:58:53;;;;;;;;;;;17.30;92.30;;;;;;4880231;29;19924;-73
2022/04/12 11:01:29;;;;;;;;;;;17.50;91.80;;;;;;4881325;29;20021;-74
2022/04/12 11:04:02;;;;;;;;;;;17.60;90.50;;;;;;4886647;29;20330;-73
2022/04/12 11:06:34;;;;;;;;;;;17.70;89.40;;;;;;4908833;29;19931;-74
2022/04/12 11:09:00;;;;;;;;;;;17.90;91.10;;;;;;4905548;29;19923;-74
2022/04/12 11:11:48;;;;;;;;;;;18.10;90.80;;;;;;4896579;29;19934;-74
2022/04/12 11:14:20;;;;;;;;;;;18.20;86.90;;;;;;4889953;29;19924;-73
2022/04/12 11:16:57;;;;;;;;;;;18.40;85.70;;;;;;4900116;29;19930;-73
2022/04/12 11:19:39;;;;;;;;;;;18.40;89.00;;;;;;4879019;29;19928;-74
2022/04/12 11:22:09;;;;;;;;;;;18.60;88.10;;;;;;4878537;29;19969;-74
2022/04/12 11:24:41;;;;;;;;;;;18.60;85.80;;;;;;4879732;29;19931;-74
2022/04/12 11:27:13;;;;;;;;;;;18.80;86.20;;;;;;4886662;29;19931;-74
2022/04/12 11:29:44;;;;;;;;;;;18.80;84.00;;;;;;4882936;29;19932;-73
2022/04/12 11:32:16;;;;;;;;;;;18.90;84.70;;;;;;4866464;29;19924;-73
2022/04/12 11:34:48;;;;;;;;;;;19.00;84.70;;;;;;4888971;29;19936;-74
2022/04/12 11:37:19;;;;;;;;;;;19.00;82.50;;;;;;4880460;29;19924;-74
2022/04/12 11:39:46;;;;;;;;;;;19.00;85.70;;;;;;4881052;29;20300;-73
2022/04/12 11:42:17;;;;;;;;;;;19.10;86.70;;;;;;4875065;29;19951;-74
2022/04/12 11:44:50;;;;;;;;;;;19.10;84.10;;;;;;4885299;29;19928;-73
2022/04/12 11:47:26;;;;;;;;;;;19.20;81.70;;;;;;4893567;29;20373;-74
2022/04/12 11:49:53;;;;;;;;;;;19.30;81.60;;;;;;4877902;29;20291;-74
2022/04/12 11:52:26;;;;;;;;;;;19.40;80.00;;;;;;4892957;29;19976;-73
2022/04/12 11:55:01;;;;;;;;;;;19.40;81.20;;;;;;4877554;29;20296;-73
2022/04/12 11:57:32;;;;;;;;;;;19.40;80.00;;;;;;4892321;29;19923;-74
2022/04/12 12:00:04;;;;;;;;;;;19.50;81.90;;;;;;4877899;29;19923;-73
2022/04/12 12:02:37;;;;;;;;;;;19.40;81.50;;;;;;4877867;29;19924;-73
2022/04/12 12:05:10;;;;;;;;;;;19.50;80.40;;;;;;4884455;29;19965;-74
2022/04/12 12:07:42;;;;;;;;;;;19.60;81.30;;;;;;4902718;29;19924;-74
2022/04/12 12:10:14;;;;;;;;;;;19.70;80.60;;;;;;4892794;29;20034;-74
2022/04/12 12:12:47;;;;;;;;;;;19.80;75.90;;;;;;4877338;29;19924;-74
2022/04/12 12:15:18;;;;;;;;;;;19.90;81.10;;;;;;4892436;29;19923;-74
2022/04/12 12:17:51;;;;;;;;;;;20.00;77.30;;;;;;4879124;29;19923;-74
2022/04/12 12:20:24;;;;;;;;;;;20.00;75.50;;;;;;4892130;29;19923;-73
2022/04/12 12:22:56;;;;;;;;;;;20.00;79.10;;;;;;4892608;29;19927;-72
2022/04/12 12:25:46;;;;;;;;;;;20.00;80.10;;;;;;4872493;29;19928;-73
2022/04/12 12:28:19;;;;;;;;;;;20.10;76.60;;;;;;4906117;29;20309;-74
2022/04/12 12:31:01;;;;;;;;;;;20.10;76.40;;;;;;4898370;29;19923;-74
2022/04/12 12:33:38;;;;;;;;;;;20.10;76.70;;;;;;4883566;29;19923;-74
2022/04/12 12:36:16;;;;;;;;;;;20.10;76.80;;;;;;4880901;29;19939;-73
2022/04/12 12:38:48;;;;;;;;;;;20.00;76.90;;;;;;4874739;29;19992;-74
2022/04/12 12:41:27;;;;;;;;;;;20.00;76.10;;;;;;4896458;29;19945;-73
2022/04/12 12:43:58;;;;;;;;;;;20.00;75.40;;;;;;4877420;29;19930;-74
2022/04/12 12:46:26;;;;;;;;;;;20.00;75.10;;;;;;4891726;29;19962;-74
2022/04/12 12:49:24;;;;;;;;;;;20.00;73.20;;;;;;4890874;29;19923;-74
2022/04/12 12:51:56;;;;;;;;;;;20.00;72.80;;;;;;4883306;29;19968;-74
2022/04/12 12:54:28;;;;;;;;;;;20.00;73.20;;;;;;4890991;29;19963;-74
2022/04/12 12:56:54;;;;;;;;;;;20.10;73.50;;;;;;4892874;29;19928;-74
2022/04/12 12:59:36;;;;;;;;;;;20.20;71.50;;;;;;4878683;29;19930;-74
2022/04/12 13:02:10;;;;;;;;;;;20.40;74.00;;;;;;4883913;29;19935;-73
2022/04/12 13:04:38;;;;;;;;;;;20.60;72.90;;;;;;4885614;29;19924;-74
2022/04/12 13:07:09;;;;;;;;;;;20.70;72.70;;;;;;4877185;29;20391;-74
2022/04/12 13:09:42;;;;;;;;;;;20.80;72.40;;;;;;4879329;29;19923;-74
2022/04/12 13:12:14;;;;;;;;;;;20.80;70.40;;;;;;4886410;29;19975;-73
2022/04/12 13:14:46;;;;;;;;;;;20.80;71.00;;;;;;4884257;29;20343;-74
2022/04/12 13:17:18;;;;;;;;;;;20.80;70.60;;;;;;4881020;29;19934;-74
2022/04/12 13:19:50;;;;;;;;;;;20.90;71.90;;;;;;4896464;29;20030;-74
2022/04/12 13:22:18;;;;;;;;;;;21.00;74.10;;;;;;4882103;29;19924;-74
2022/04/12 13:24:49;;;;;;;;;;;21.10;70.20;;;;;;4899023;29;20286;-73
2022/04/12 13:27:21;;;;;;;;;;;21.20;67.00;;;;;;4894697;29;20302;-74
2022/04/12 13:29:53;;;;;;;;;;;21.20;65.40;;;;;;4900131;29;19928;-74
2022/04/12 13:32:25;;;;;;;;;;;21.30;67.00;;;;;;4896859;29;19923;-74
2022/04/12 13:34:56;;;;;;;;;;;21.40;67.50;;;;;;4883511;29;19942;-74
2022/04/12 13:37:28;;;;;;;;;;;21.40;68.30;;;;;;4892516;29;19923;-74
2022/04/12 13:39:54;;;;;;;;;;;21.50;69.00;;;;;;4883664;29;19932;-74
2022/04/12 13:42:26;;;;;;;;;;;21.50;68.60;;;;;;4893609;29;20401;-74
2022/04/12 13:44:54;;;;;;;;;;;21.60;68.40;;;;;;4894399;29;20023;-74
2022/04/12 13:47:26;;;;;;;;;;;21.60;66.70;;;;;;4897931;29;20394;-74
2022/04/12 13:49:53;;;;;;;;;;;21.60;64.30;;;;;;4893297;29;19924;-74
2022/04/12 13:52:24;;;;;;;;;;;21.50;62.90;;;;;;4897272;29;19924;-74
2022/04/12 13:54:56;;;;;;;;;;;21.40;65.40;;;;;;4879278;29;20476;-74
2022/04/12 13:57:28;;;;;;;;;;;21.40;66.40;;;;;;4894204;29;21087;-74
2022/04/12 13:59:54;;;;;;;;;;;21.30;68.30;;;;;;4891977;29;20027;-74
2022/04/12 14:02:27;;;;;;;;;;;21.20;68.50;;;;;;4890383;29;19924;-74
2022/04/12 14:04:58;;;;;;;;;;;21.20;69.60;;;;;;4897288;29;19923;-74
2022/04/12 14:07:30;;;;;;;;;;;21.10;71.90;;;;;;4878829;29;19932;-74
2022/04/12 14:10:02;;;;;;;;;;;21.10;70.80;;;;;;4884267;29;19924;-74
2022/04/12 14:12:34;;;;;;;;;;;21.00;66.30;;;;;;4911948;29;19923;-74
2022/04/12 14:15:06;;;;;;;;;;;20.90;68.90;;;;;;4902600;29;19923;-74
2022/04/12 14:17:39;;;;;;;;;;;20.80;69.50;;;;;;4898085;29;20010;-73
2022/04/12 14:20:10;;;;;;;;;;;20.70;69.70;;;;;;4911760;29;19931;-74
2022/04/12 14:22:42;;;;;;;;;;;20.60;68.70;;;;;;4890309;29;19923;-73
2022/04/12 14:25:13;;;;;;;;;;;20.60;69.80;;;;;;4911127;29;19923;-74
2022/04/12 14:27:45;;;;;;;;;;;20.60;70.80;;;;;;4877010;29;19924;-74
2022/04/12 14:30:16;;;;;;;;;;;20.50;69.30;;;;;;4879238;29;20304;-74
2022/04/12 14:32:48;;;;;;;;;;;20.50;70.00;;;;;;4877776;29;19924;-74
2022/04/12 14:35:20;;;;;;;;;;;20.40;69.50;;;;;;4894992;29;19928;-74
2022/04/12 14:37:51;;;;;;;;;;;20.40;71.50;;;;;;4894136;29;19924;-73
2022/04/12 14:40:23;;;;;;;;;;;20.30;72.40;;;;;;4890302;29;19963;-73
2022/04/12 14:42:50;;;;;;;;;;;20.40;71.50;;;;;;4883187;29;20013;-73
2022/04/12 14:45:23;;;;;;;;;;;20.40;72.10;;;;;;4884327;29;19924;-73
2022/04/12 14:47:55;;;;;;;;;;;20.40;73.10;;;;;;4901300;29;19942;-73
2022/04/12 14:50:22;;;;;;;;;;;20.40;71.60;;;;;;4894302;29;19924;-73
2022/04/12 14:52:53;;;;;;;;;;;20.40;71.30;;;;;;4878687;29;19924;-73